KHTS

Tri-State / Milton J Ferguson Field Airport

Huntington, West Virginia, USA
METAR KHTS 241251Z 08004KT 10SM CLR 17/14 A3020 RMK AO2 SLP222 T01720139
Observed Flight Rules
May-24 @ 12:51 UTC (58 minutes ago) Visual Flight Rules
Wind Visibility Clouds
80° at 4 knots 10 miles
  • Clear skies
Temperatures Readings
Current 17°C / 63°F
Dewpoint 14°C / 57°F
Humidity 83%
Altimeter 30.2" Hg
Pressure 1022.2 hPa
Elevation 254
METAR KHTS 241251Z 08004KT 10SM CLR 17/14 A3020 RMK AO2 SLP222 T01720139
Observed Flight Rules
May-24 @ 12:51 UTC
(58 minutes ago)
VFR
Wind Visibility
80° at 4 knots 10 miles
Clouds
  • Clear skies
Temperature Dewpoint
17°C / 63°F 14°C / 57°F
Humidity Altimeter Pressure
83% 30.2" Hg 1022.2 hPa